Fall River, Massachusetts
Current Conditions -  °F | °C
As of 4:08 PM on Tuesday 27 Jan 2015 (Local Time) from KEWB Reporting Station
Light Snow Light Snow  
Wind Chill: -15°   Ceiling: 2800
Heat Index: -8°   Visibility: 2mi
Dew Point: -11°   Wind: 13mph
Humidity: 78%   Direction: 320°NW
Pressure: 29.44"   Gusts: 28mph
Location:  41.7°N, 71.14°W
Report Text: KEWB 272108Z AUTO 32011G24KT 2SM R05/5500VP6000FT -SN BKN028 OVC038 M08/M11 A2944 RMK AO2 P0000 T10781111 $
Loading
Personal Weather Stations






























Interactive Weather Map New forecast layout! Learn more

10-Day Weather Forecast

Advertisements
Track Severe Weather on mobile